Time;durP1;ratioP1;P1;durP2;ratioP2;P2;SDS_P1;SDS_P2;PMS_P1;PMS_P2;Temp;Humidity;BMP_temperature;BMP_pressure;BME280_temperature;BME280_humidity;BME280_pressure;Samples;Min_cycle;Max_cycle;Signal;HPM_P1;HPM_P2
2021/05/24 00:02:11;;;;;;;3.53;1.40;;;;;;;18.83;52.09;100340.63;4998141;28;20030;-73
2021/05/24 00:04:37;;;;;;;4.90;1.70;;;;;;;18.89;51.73;100335.34;5014246;28;20022;-73
2021/05/24 00:07:03;;;;;;;3.20;1.48;;;;;;;18.84;51.71;100331.75;5014266;28;20531;-73
2021/05/24 00:09:28;;;;;;;2.28;1.02;;;;;;;18.72;51.35;100312.53;4998024;28;20057;-73
2021/05/24 00:11:54;;;;;;;5.28;1.25;;;;;;;18.76;51.92;100312.53;5014073;28;20453;-72
2021/05/24 00:14:21;;;;;;;6.65;1.50;;;;;;;18.79;51.38;100306.84;5014005;28;20045;-72
2021/05/24 00:16:47;;;;;;;4.50;1.48;;;;;;;18.81;50.96;100306.44;5014038;28;20049;-72
2021/05/24 00:19:12;;;;;;;3.17;1.17;;;;;;;18.81;50.72;100307.25;5014109;28;20022;-72
2021/05/24 00:21:38;;;;;;;2.17;1.23;;;;;;;18.75;50.56;100296.81;5013888;28;20468;-73
2021/05/24 00:24:04;;;;;;;1.75;1.02;;;;;;;18.74;50.66;100298.81;5014171;28;20033;-72
2021/05/24 00:26:30;;;;;;;1.98;1.10;;;;;;;18.64;50.30;100296.88;5013809;28;20113;-73
2021/05/24 00:28:55;;;;;;;2.83;1.17;;;;;;;18.68;50.21;100305.34;5013453;28;20124;-72
2021/05/24 00:31:21;;;;;;;2.47;1.15;;;;;;;18.62;50.50;100299.31;5013956;28;20049;-72
2021/05/24 00:33:47;;;;;;;5.90;0.85;;;;;;;18.61;50.33;100299.72;5013517;28;20052;-72
2021/05/24 00:36:13;;;;;;;2.13;0.95;;;;;;;18.52;49.98;100294.56;5013744;28;20060;-72
2021/05/24 00:38:38;;;;;;;2.50;1.15;;;;;;;18.57;49.65;100294.13;5013573;28;20091;-73
2021/05/24 00:41:04;;;;;;;4.95;1.20;;;;;;;18.68;49.14;100291.25;5013703;28;20053;-72
2021/05/24 00:43:29;;;;;;;2.92;1.25;;;;;;;18.66;48.80;100288.81;5013640;28;20025;-71
2021/05/24 00:45:55;;;;;;;4.85;1.58;;;;;;;18.59;49.49;100284.06;5013335;28;20053;-72
2021/05/24 00:48:21;;;;;;;3.58;1.20;;;;;;;18.54;49.54;100292.94;5013697;28;20026;-72
2021/05/24 00:50:46;;;;;;;4.82;1.75;;;;;;;18.53;50.06;100282.88;5013306;28;20048;-73
2021/05/24 00:53:13;;;;;;;5.18;1.33;;;;;;;18.42;49.95;100278.53;5013619;28;20025;-73
2021/05/24 00:55:41;;;;;;;3.40;1.33;;;;;;;18.43;50.61;100277.31;5013309;28;20029;-73
2021/05/24 00:58:07;;;;;;;2.30;0.95;;;;;;;18.36;51.53;100278.19;5013544;28;20030;-72
2021/05/24 01:00:39;;;;;;;6.60;1.85;;;;;;;18.35;51.81;100275.78;5013282;28;20036;-72
2021/05/24 01:03:06;;;;;;;5.72;1.33;;;;;;;18.27;52.51;100275.03;5013186;28;20155;-72
2021/05/24 01:05:32;;;;;;;3.60;1.10;;;;;;;18.09;52.76;100268.72;5013211;28;20036;-72
2021/05/24 01:07:57;;;;;;;3.83;0.98;;;;;;;18.05;53.11;100266.72;5012959;28;20025;-72
2021/05/24 01:10:24;;;;;;;4.40;1.15;;;;;;;18.07;52.57;100266.31;5013218;28;20033;-71
2021/05/24 01:12:49;;;;;;;3.40;1.27;;;;;;;17.95;52.56;100263.97;5013104;28;20049;-72
2021/05/24 01:15:18;;;;;;;4.30;1.23;;;;;;;18.03;52.10;100265.53;5012777;28;20139;-72
2021/05/24 01:17:43;;;;;;;7.15;1.10;;;;;;;17.94;52.61;100251.09;5012946;28;20032;-73
2021/05/24 01:20:10;;;;;;;2.20;1.20;;;;;;;17.90;52.17;100255.97;5014130;28;20373;-72
2021/05/24 01:22:38;;;;;;;2.17;1.33;;;;;;;17.91;51.46;100257.56;5013060;28;20034;-72
2021/05/24 01:25:06;;;;;;;5.28;1.67;;;;;;;18.03;50.83;100251.47;5014041;28;20423;-72
2021/05/24 01:27:31;;;;;;;1.98;1.15;;;;;;;18.06;50.33;100239.38;5012768;28;20101;-72
2021/05/24 01:29:57;;;;;;;1.98;1.10;;;;;;;18.07;50.51;100249.44;5012635;28;20113;-71
2021/05/24 01:32:23;;;;;;;6.53;1.20;;;;;;;18.05;50.58;100241.38;5014412;28;20356;-72
2021/05/24 01:34:49;;;;;;;2.20;1.00;;;;;;;18.00;51.10;100246.63;5012698;28;20099;-73
2021/05/24 01:37:17;;;;;;;1.45;1.05;;;;;;;17.95;51.06;100244.25;5012890;28;20416;-72
2021/05/24 01:39:43;;;;;;;3.17;1.25;;;;;;;17.94;51.54;100245.47;5012675;28;20025;-72
2021/05/24 01:42:08;;;;;;;3.00;1.20;;;;;;;17.95;51.67;100242.28;5012440;28;20457;-72
2021/05/24 01:44:40;;;;;;;2.83;1.27;;;;;;;17.87;51.48;100242.72;5012184;28;20033;-72
2021/05/24 01:47:07;;;;;;;2.03;1.02;;;;;;;17.87;51.82;100251.97;5012303;28;20080;-72
2021/05/24 01:49:34;;;;;;;2.90;1.77;;;;;;;17.89;51.51;100259.97;5013528;28;20029;-73
2021/05/24 01:52:01;;;;;;;4.03;1.10;;;;;;;18.03;51.38;100262.72;5012271;28;20084;-72
2021/05/24 01:54:26;;;;;;;3.15;1.10;;;;;;;17.97;51.40;100261.56;5012440;28;20452;-72
2021/05/24 01:56:52;;;;;;;3.72;1.30;;;;;;;17.85;51.60;100253.59;5012424;28;20018;-73
2021/05/24 01:59:18;;;;;;;4.68;1.58;;;;;;;17.87;51.63;100268.03;5012394;28;20371;-71
2021/05/24 02:01:44;;;;;;;3.20;1.10;;;;;;;17.80;51.81;100269.69;5012434;28;20022;-71
2021/05/24 02:04:11;;;;;;;4.53;1.58;;;;;;;17.79;51.75;100273.72;4995834;28;20084;-72
2021/05/24 02:06:36;;;;;;;3.47;1.05;;;;;;;17.85;51.40;100274.09;5012481;28;20434;-72
2021/05/24 02:09:03;;;;;;;3.60;1.58;;;;;;;17.86;51.56;100278.50;5012255;28;20034;-74
2021/05/24 02:11:30;;;;;;;4.15;1.00;;;;;;;17.94;51.50;100276.44;5012534;28;20492;-71
2021/05/24 02:13:56;;;;;;;6.47;1.17;;;;;;;17.94;51.03;100271.59;5012175;28;20037;-74
2021/05/24 02:16:35;;;;;;;2.67;0.90;;;;;;;17.91;51.29;100261.19;5011770;28;20432;-73
2021/05/24 02:19:00;;;;;;;4.28;1.30;;;;;;;17.99;51.53;100259.13;5012230;28;20017;-72
2021/05/24 02:21:26;;;;;;;4.53;1.25;;;;;;;17.94;51.78;100270.81;5012047;28;20052;-71
2021/05/24 02:23:51;;;;;;;5.82;2.35;;;;;;;17.94;51.76;100273.63;5012192;28;20025;-72
2021/05/24 02:26:17;;;;;;;4.70;1.40;;;;;;;17.93;51.62;100278.44;5012029;28;20041;-71
2021/05/24 02:28:43;;;;;;;3.22;1.20;;;;;;;17.90;50.36;100284.13;5012221;28;20034;-72
2021/05/24 02:31:09;;;;;;;3.95;1.20;;;;;;;17.94;50.17;100285.69;5012049;28;20038;-72
2021/05/24 02:33:37;;;;;;;3.22;1.10;;;;;;;17.95;50.79;100286.47;5012248;28;20108;-71
2021/05/24 02:36:03;;;;;;;5.40;1.20;;;;;;;17.95;51.00;100286.47;5012009;28;20029;-72
2021/05/24 02:38:28;;;;;;;2.78;1.13;;;;;;;17.96;50.66;100283.28;5012015;28;20026;-72
2021/05/24 02:40:54;;;;;;;5.03;1.48;;;;;;;18.01;50.39;100296.91;5011972;28;20034;-72
2021/05/24 02:43:20;;;;;;;3.90;1.42;;;;;;;18.00;50.76;100297.31;5011936;28;20026;-72
2021/05/24 02:45:47;;;;;;;4.15;0.80;;;;;;;17.98;50.92;100297.72;5011932;28;20040;-71
2021/05/24 02:48:14;;;;;;;3.40;1.33;;;;;;;17.93;50.67;100288.91;5011883;28;20342;-72
2021/05/24 02:50:40;;;;;;;3.97;1.20;;;;;;;17.93;51.14;100289.72;5011946;28;20453;-72
2021/05/24 02:53:06;;;;;;;2.75;1.15;;;;;;;17.94;51.43;100296.94;5011855;28;20120;-73
2021/05/24 02:55:31;;;;;;;4.93;1.38;;;;;;;17.87;51.20;100297.00;5011917;28;20090;-72
2021/05/24 02:57:57;;;;;;;5.93;1.35;;;;;;;17.93;51.21;100300.97;5013843;28;20113;-72
2021/05/24 03:00:26;;;;;;;7.22;1.30;;;;;;;18.00;51.79;100309.41;5015406;28;20180;-71
2021/05/24 03:02:52;;;;;;;4.15;1.52;;;;;;;17.89;51.55;100311.44;5015717;28;20113;-72
2021/05/24 03:05:20;;;;;;;3.17;2.03;;;;;;;17.89;52.46;100313.47;5015369;28;20076;-72
2021/05/24 03:07:47;;;;;;;9.50;8.43;;;;;;;17.85;53.19;100304.25;5015297;28;20464;-71
2021/05/24 03:10:16;;;;;;;6.38;4.45;;;;;;;17.82;53.77;100314.31;5015329;28;20022;-72
2021/05/24 03:12:41;;;;;;;13.65;9.60;;;;;;;17.75;54.49;100312.31;5015336;28;20030;-72
2021/05/24 03:15:08;;;;;;;11.90;10.25;;;;;;;17.63;54.74;100326.81;5014997;28;20108;-73
2021/05/24 03:17:34;;;;;;;15.55;12.60;;;;;;;17.57;54.84;100317.19;5015276;28;20022;-71
2021/05/24 03:19:59;;;;;;;9.57;6.57;;;;;;;17.57;54.62;100322.81;5015330;28;20472;-72
2021/05/24 03:22:25;;;;;;;8.18;4.88;;;;;;;17.55;54.70;100313.97;5015072;28;20059;-73
2021/05/24 03:24:51;;;;;;;3.88;3.30;;;;;;;17.47;55.25;100323.63;5014807;28;20385;-71
2021/05/24 03:27:16;;;;;;;5.00;3.10;;;;;;;17.36;55.15;100318.03;5014892;28;20368;-71
2021/05/24 03:29:42;;;;;;;5.40;2.70;;;;;;;17.27;55.35;100328.94;5015272;28;20088;-72
2021/05/24 03:32:08;;;;;;;8.85;5.20;;;;;;;17.21;55.66;100327.75;5015047;28;20432;-72
2021/05/24 03:34:34;;;;;;;8.50;5.82;;;;;;;17.18;55.22;100320.09;5014695;28;20034;-72
2021/05/24 03:36:59;;;;;;;12.93;9.93;;;;;;;17.15;55.48;100312.47;5014893;28;20056;-72
2021/05/24 03:39:27;;;;;;;12.23;6.93;;;;;;;17.14;55.42;100314.47;5014795;28;20060;-72
2021/05/24 03:41:53;;;;;;;10.00;7.45;;;;;;;17.14;55.58;100314.47;5014845;28;20026;-72
2021/05/24 03:44:19;;;;;;;9.15;5.05;;;;;;;17.20;55.66;100310.03;5014641;28;20343;-73
2021/05/24 03:46:44;;;;;;;10.48;6.47;;;;;;;17.27;55.58;100310.06;5014900;28;20018;-72
2021/05/24 03:49:10;;;;;;;15.93;11.23;;;;;;;17.30;55.57;100316.84;5014833;28;20366;-73
2021/05/24 03:51:35;;;;;;;11.95;7.45;;;;;;;17.36;55.64;100312.41;5014562;28;20080;-72
2021/05/24 03:54:01;;;;;;;10.13;5.50;;;;;;;17.34;55.48;100302.78;5014636;28;20083;-72
2021/05/24 03:56:27;;;;;;;4.95;3.95;;;;;;;17.37;55.44;100299.97;5015484;28;20022;-72
2021/05/24 03:58:53;;;;;;;8.35;5.20;;;;;;;17.38;54.90;100297.97;5014854;28;20148;-72
2021/05/24 04:01:19;;;;;;;12.00;9.52;;;;;;;17.43;55.28;100300.38;5014436;28;20519;-73
2021/05/24 04:03:44;;;;;;;15.82;12.57;;;;;;;17.57;55.12;100308.72;5015986;28;20464;-72
2021/05/24 04:06:14;;;;;;;10.50;8.45;;;;;;;17.62;55.01;100308.31;5014418;28;20018;-71
2021/05/24 04:08:44;;;;;;;9.65;5.18;;;;;;;17.79;54.11;100301.88;5013751;28;20022;-73
2021/05/24 04:11:11;;;;;;;9.23;5.82;;;;;;;17.99;53.76;100304.16;5014257;28;20457;-72
2021/05/24 04:13:37;;;;;;;11.98;7.10;;;;;;;18.17;53.16;100304.06;5014073;28;20025;-72
2021/05/24 04:16:03;;;;;;;17.50;7.57;;;;;;;18.35;52.51;100303.94;5013703;28;20042;-72
2021/05/24 04:18:34;;;;;;;15.50;9.63;;;;;;;18.47;52.07;100301.44;5013991;28;20042;-72
2021/05/24 04:21:02;;;;;;;18.65;12.20;;;;;;;18.71;51.40;100304.50;5015373;28;20026;-72
2021/05/24 04:23:28;;;;;;;17.08;11.90;;;;;;;18.92;50.92;100309.97;5015184;28;20375;-73
2021/05/24 04:25:54;;;;;;;18.23;14.30;;;;;;;19.21;50.17;100318.94;5013961;28;20177;-72
2021/05/24 04:28:20;;;;;;;17.42;11.15;;;;;;;19.42;50.18;100314.28;4997547;28;20449;-72
2021/05/24 04:30:46;;;;;;;9.07;5.90;;;;;;;19.67;48.82;100314.84;5015250;28;20056;-72
2021/05/24 04:33:12;;;;;;;13.43;2.92;;;;;;;19.90;48.71;100322.59;5015086;28;20034;-72
2021/05/24 04:35:39;;;;;;;2.90;2.22;;;;;;;20.20;48.36;100326.66;4997155;28;20095;-73
2021/05/24 04:38:04;;;;;;;2.05;1.67;;;;;;;20.52;47.83;100334.69;5013896;28;20022;-72
2021/05/24 04:40:30;;;;;;;5.90;1.90;;;;;;;20.81;47.23;100330.16;5013495;28;20456;-73
2021/05/24 04:42:57;;;;;;;5.68;1.67;;;;;;;21.11;46.30;100334.09;5013571;28;20021;-72
2021/05/24 04:45:26;;;;;;;8.95;1.63;;;;;;;21.35;45.41;100326.41;5013551;28;20036;-72
2021/05/24 04:47:52;;;;;;;5.22;1.60;;;;;;;21.59;44.36;100327.16;5013482;28;20014;-72
2021/05/24 04:50:18;;;;;;;6.45;1.80;;;;;;;21.98;43.72;100315.00;5013643;28;20026;-72
2021/05/24 04:52:43;;;;;;;7.40;1.80;;;;;;;22.40;42.41;100318.94;5013330;28;20357;-72
2021/05/24 04:55:12;;;;;;;3.20;1.48;;;;;;;22.75;41.39;100316.50;5013371;28;20034;-72
2021/05/24 04:57:40;;;;;;;4.70;1.88;;;;;;;23.18;39.93;100332.47;5013108;28;20018;-73
2021/05/24 05:00:10;;;;;;;5.57;1.70;;;;;;;23.60;39.28;100326.84;5013095;28;20452;-73
2021/05/24 05:02:36;;;;;;;4.28;1.67;;;;;;;23.87;38.38;100315.94;5013021;28;20420;-73
2021/05/24 05:05:07;;;;;;;2.78;1.40;;;;;;;24.08;38.30;100308.81;5012960;28;20032;-72
2021/05/24 05:07:32;;;;;;;5.47;2.13;;;;;;;24.53;37.70;100308.63;5014027;28;20022;-72
2021/05/24 05:09:59;;;;;;;3.17;1.55;;;;;;;24.92;36.78;100306.50;5013007;28;20092;-72
2021/05/24 05:12:28;;;;;;;8.30;1.90;;;;;;;25.41;36.00;100313.78;5013106;28;20018;-72
2021/05/24 05:14:55;;;;;;;2.60;1.50;;;;;;;25.48;35.88;100317.19;5012792;28;20049;-73
2021/05/24 05:17:24;;;;;;;3.10;1.85;;;;;;;26.02;35.42;100315.22;5012955;28;20041;-72
2021/05/24 05:19:50;;;;;;;5.25;1.42;;;;;;;26.09;36.11;100310.00;5012051;28;20103;-72
2021/05/24 05:22:16;;;;;;;11.05;2.00;;;;;;;26.35;35.98;100304.13;5012966;28;20069;-72
2021/05/24 05:24:41;;;;;;;8.68;2.25;;;;;;;26.12;36.56;100314.78;5014523;28;20022;-72
2021/05/24 05:27:07;;;;;;;3.75;1.40;;;;;;;25.57;37.59;100307.94;5012689;28;20453;-73
2021/05/24 05:29:33;;;;;;;5.20;1.67;;;;;;;24.55;39.56;100305.31;5014411;28;20026;-72
2021/05/24 05:31:59;;;;;;;9.40;2.30;;;;;;;24.48;39.48;100302.72;5012544;28;20429;-72
2021/05/24 05:34:24;;;;;;;11.43;2.65;;;;;;;24.54;39.40;100313.06;5012840;28;20461;-73
2021/05/24 05:36:50;;;;;;;7.13;2.53;;;;;;;24.85;38.82;100303.91;5012887;28;20048;-73
2021/05/24 05:39:15;;;;;;;13.35;2.35;;;;;;;24.85;38.80;100308.81;5012488;28;20033;-74
2021/05/24 05:41:41;;;;;;;5.38;2.13;;;;;;;25.03;39.35;100297.59;5012601;28;20185;-73
2021/05/24 05:44:07;;;;;;;9.55;3.28;;;;;;;25.82;38.12;100295.59;5012354;28;20029;-73
2021/05/24 05:46:33;;;;;;;13.65;4.43;;;;;;;25.31;39.62;100295.84;5012547;28;20033;-73
2021/05/24 05:48:59;;;;;;;7.18;2.55;;;;;;;25.95;38.51;100292.69;5012515;28;20018;-73
2021/05/24 05:51:28;;;;;;;10.10;3.17;;;;;;;25.85;38.09;100295.47;5012217;28;20041;-73
2021/05/24 05:53:53;;;;;;;7.07;3.55;;;;;;;25.93;36.75;100301.69;5012153;28;20088;-72
2021/05/24 05:56:19;;;;;;;8.70;3.58;;;;;;;25.61;37.40;100300.81;5012042;28;20033;-72
2021/05/24 05:58:45;;;;;;;7.43;3.38;;;;;;;26.28;35.34;100290.16;5012180;28;20076;-72
2021/05/24 06:01:10;;;;;;;6.32;3.22;;;;;;;27.20;34.27;100274.09;5012099;28;20022;-73
2021/05/24 06:03:36;;;;;;;8.10;2.65;;;;;;;27.01;32.77;100276.13;5012123;28;20036;-73
2021/05/24 06:06:02;;;;;;;5.45;2.50;;;;;;;27.65;31.50;100273.28;5011638;28;20029;-73
2021/05/24 06:08:28;;;;;;;7.20;2.38;;;;;;;27.63;31.85;100275.00;5011772;28;20049;-73
2021/05/24 06:10:56;;;;;;;13.32;3.22;;;;;;;27.81;31.80;100268.50;5011404;28;20042;-73
2021/05/24 06:13:25;;;;;;;10.30;3.45;;;;;;;27.56;32.89;100266.78;5011540;28;20021;-72
2021/05/24 06:15:54;;;;;;;6.53;3.40;;;;;;;28.65;30.87;100274.22;5012773;28;20041;-75
2021/05/24 06:18:21;;;;;;;4.32;2.78;;;;;;;29.31;30.17;100279.03;5012560;28;20022;-72
2021/05/24 06:20:49;;;;;;;6.20;3.22;;;;;;;29.74;29.59;100277.56;5012196;28;20033;-72
2021/05/24 06:23:18;;;;;;;10.90;2.95;;;;;;;30.24;28.86;100286.25;5011908;28;20372;-73
2021/05/24 06:25:45;;;;;;;8.05;3.45;;;;;;;30.46;28.28;100279.28;5013480;28;20034;-73
2021/05/24 06:28:11;;;;;;;9.60;2.95;;;;;;;30.92;27.61;100275.78;5011722;28;20100;-73
2021/05/24 06:30:37;;;;;;;7.53;2.30;;;;;;;31.25;27.33;100266.78;5011994;28;20030;-73
2021/05/24 06:33:03;;;;;;;11.65;2.97;;;;;;;30.50;28.13;100274.13;5015833;28;20534;-77
2021/05/24 06:35:30;;;;;;;4.53;2.15;;;;;;;31.08;27.60;100272.34;5015922;28;20026;-72
2021/05/24 06:37:55;;;;;;;6.00;2.97;;;;;;;31.32;27.48;100274.22;5015805;28;20025;-73
2021/05/24 06:40:21;;;;;;;8.13;2.65;;;;;;;31.87;27.08;100271.19;5015462;28;20380;-74
2021/05/24 06:42:47;;;;;;;8.88;2.90;;;;;;;31.74;27.36;100265.78;5016683;28;20018;-72
2021/05/24 06:45:15;;;;;;;5.95;2.67;;;;;;;31.98;26.91;100274.16;5015493;28;20030;-73
2021/05/24 06:47:40;;;;;;;4.35;3.00;;;;;;;32.36;25.87;100274.22;5016879;28;20026;-72
2021/05/24 06:50:07;;;;;;;7.15;1.85;;;;;;;31.56;22.48;100266.13;5015627;28;20034;-73
2021/05/24 06:52:33;;;;;;;4.28;2.03;;;;;;;31.95;21.83;100266.53;5015503;28;20022;-73
2021/05/24 06:54:59;;;;;;;8.65;2.38;;;;;;;31.32;22.23;100262.72;5015506;28;20030;-72
2021/05/24 06:57:24;;;;;;;9.23;1.85;;;;;;;31.07;23.61;100259.28;5015117;28;20033;-73
2021/05/24 06:59:50;;;;;;;5.60;1.92;;;;;;;31.59;22.59;100259.38;5015999;28;20455;-72
2021/05/24 07:02:17;;;;;;;8.20;2.22;;;;;;;32.67;21.57;100259.75;5015005;28;20022;-73
2021/05/24 07:04:44;;;;;;;9.07;3.42;;;;;;;33.32;21.16;100262.69;5016429;28;20111;-72
2021/05/24 07:07:10;;;;;;;10.77;3.53;;;;;;;33.65;20.98;100264.09;5015049;28;20022;-73
2021/05/24 07:09:36;;;;;;;6.60;3.38;;;;;;;34.25;19.93;100267.59;4999029;28;20033;-74
2021/05/24 07:12:01;;;;;;;6.88;2.80;;;;;;;34.39;18.78;100260.72;5015079;28;20021;-73
2021/05/24 07:14:27;;;;;;;7.95;2.38;;;;;;;34.21;17.75;100255.50;5014933;28;20053;-73
2021/05/24 07:16:56;;;;;;;5.05;2.50;;;;;;;34.35;17.25;100242.09;5015283;28;20034;-73
2021/05/24 07:19:22;;;;;;;7.22;2.08;;;;;;;33.79;17.63;100254.41;5014949;28;20057;-73
2021/05/24 07:21:48;;;;;;;4.30;2.05;;;;;;;34.42;17.64;100258.13;5014898;28;20050;-73
2021/05/24 07:24:14;;;;;;;6.57;2.20;;;;;;;33.79;18.15;100257.31;5014767;28;20036;-75
2021/05/24 07:26:40;;;;;;;5.13;2.47;;;;;;;34.33;17.92;100239.72;5014680;28;20022;-73
2021/05/24 07:29:05;;;;;;;13.00;2.53;;;;;;;33.99;17.90;100261.28;5016259;28;20022;-73
2021/05/24 07:31:31;;;;;;;7.40;2.53;;;;;;;33.06;19.28;100264.94;5014662;28;20056;-72
2021/05/24 07:33:56;;;;;;;10.07;2.80;;;;;;;32.54;20.34;100257.31;5015112;28;20029;-73
2021/05/24 07:36:22;;;;;;;5.90;2.08;;;;;;;33.15;19.77;100252.41;5014529;28;20364;-75
2021/05/24 07:38:48;;;;;;;7.00;2.47;;;;;;;33.08;19.67;100259.47;5014757;28;20068;-73
2021/05/24 07:41:15;;;;;;;5.47;2.45;;;;;;;32.01;20.54;100253.00;5015901;28;20038;-72
2021/05/24 07:43:41;;;;;;;8.27;2.20;;;;;;;32.70;20.34;100260.81;5013675;28;20030;-74
2021/05/24 07:46:06;;;;;;;6.35;2.00;;;;;;;32.89;19.37;100255.44;5014488;28;20040;-73
2021/05/24 07:48:32;;;;;;;11.52;2.58;;;;;;;32.63;19.75;100247.69;5014342;28;20087;-73
2021/05/24 07:50:57;;;;;;;6.85;2.35;;;;;;;32.29;21.43;100247.44;5014619;28;20029;-73
2021/05/24 07:53:23;;;;;;;6.85;2.42;;;;;;;32.09;20.56;100244.69;5014299;28;20439;-73
2021/05/24 07:55:48;;;;;;;5.43;2.20;;;;;;;32.07;20.77;100235.78;5014250;28;20034;-73
2021/05/24 07:58:14;;;;;;;7.10;1.88;;;;;;;32.45;20.07;100239.47;5013807;28;20113;-73
2021/05/24 08:00:40;;;;;;;4.03;1.80;;;;;;;32.30;20.41;100237.50;5013668;28;20102;-73
2021/05/24 08:03:05;;;;;;;5.95;2.15;;;;;;;31.55;21.92;100232.94;5013378;28;20377;-73
2021/05/24 08:05:31;;;;;;;14.73;2.75;;;;;;;31.77;22.17;100236.00;5013750;28;20045;-72
2021/05/24 08:07:56;;;;;;;8.63;2.58;;;;;;;33.12;20.98;100245.59;5014118;28;20107;-73
2021/05/24 08:10:22;;;;;;;6.82;2.30;;;;;;;33.24;19.59;100240.63;5013748;28;20325;-73
2021/05/24 08:12:48;;;;;;;7.55;2.42;;;;;;;33.36;19.59;100240.16;5013202;28;20037;-74
2021/05/24 08:15:23;;;;;;;9.05;3.80;;;;;;;34.13;19.56;100242.91;5013397;28;20054;-73
2021/05/24 08:17:49;;;;;;;4.78;2.10;;;;;;;34.30;18.95;100240.00;5013505;28;20112;-73
2021/05/24 08:20:15;;;;;;;6.47;2.05;;;;;;;34.31;18.25;100236.59;5013887;28;20108;-73
2021/05/24 08:22:41;;;;;;;9.32;2.67;;;;;;;35.10;18.03;100225.63;5013631;28;20018;-73
2021/05/24 08:25:08;;;;;;;8.48;2.35;;;;;;;35.26;17.72;100235.50;5013528;28;20022;-73
2021/05/24 08:27:35;;;;;;;7.25;2.08;;;;;;;35.20;16.69;100228.97;5013715;28;20372;-73
2021/05/24 08:30:06;;;;;;;10.77;2.30;;;;;;;34.57;17.39;100239.19;5013848;28;20117;-73
2021/05/24 08:32:31;;;;;;;9.18;2.92;;;;;;;33.62;19.41;100233.44;5014945;28;20028;-73
2021/05/24 08:34:57;;;;;;;4.97;1.90;;;;;;;33.18;17.90;100234.84;5013377;28;20102;-72
2021/05/24 08:37:22;;;;;;;12.55;2.47;;;;;;;33.26;17.89;100233.06;5014839;28;20451;-74
2021/05/24 08:39:49;;;;;;;8.63;2.17;;;;;;;32.95;18.77;100228.22;5013242;28;20392;-73
2021/05/24 08:42:18;;;;;;;10.23;2.30;;;;;;;32.49;18.80;100223.53;5014846;28;20022;-73
2021/05/24 08:44:44;;;;;;;10.18;1.83;;;;;;;32.74;17.65;100224.69;5013353;28;20036;-73
2021/05/24 08:47:12;;;;;;;5.93;1.77;;;;;;;33.19;16.79;100230.69;5013332;28;20079;-73
2021/05/24 08:49:38;;;;;;;9.15;2.35;;;;;;;33.31;18.20;100229.41;5013340;28;20123;-75
2021/05/24 08:52:04;;;;;;;8.68;2.08;;;;;;;32.96;18.00;100231.91;5013328;28;20481;-73
2021/05/24 08:54:31;;;;;;;6.20;1.75;;;;;;;33.32;16.67;100238.84;5013365;28;20112;-72
2021/05/24 08:56:57;;;;;;;9.35;2.22;;;;;;;33.33;17.64;100235.41;5012997;28;20368;-72
2021/05/24 08:59:22;;;;;;;10.93;1.75;;;;;;;33.42;17.76;100227.88;5013201;28;20026;-73
2021/05/24 09:01:48;;;;;;;7.40;1.80;;;;;;;33.27;17.64;100231.75;5013155;28;20022;-73
2021/05/24 09:04:13;;;;;;;8.63;2.08;;;;;;;33.62;17.94;100234.22;5014009;28;20074;-73
2021/05/24 09:06:42;;;;;;;3.92;1.50;;;;;;;33.00;16.78;100238.22;5012935;28;20018;-73
2021/05/24 09:09:09;;;;;;;8.45;2.05;;;;;;;32.85;17.44;100247.78;5013274;28;20427;-73
2021/05/24 09:11:34;;;;;;;8.80;2.03;;;;;;;32.59;18.76;100247.13;5012800;28;20032;-73
2021/05/24 09:14:02;;;;;;;5.63;1.65;;;;;;;32.95;16.42;100238.97;5012900;28;20037;-73
2021/05/24 09:16:34;;;;;;;5.13;2.10;;;;;;;33.27;16.66;100243.28;4993245;28;20118;-74
2021/05/24 09:19:16;;;;;;;4.82;1.58;;;;;;;33.33;16.39;100241.19;4994443;28;20026;-72
2021/05/24 09:21:59;;;;;;;7.18;1.65;;;;;;;32.86;16.79;100231.28;4993381;28;20050;-72
2021/05/24 09:24:38;;;;;;;8.23;2.10;;;;;;;32.63;18.10;100230.41;4993971;28;20022;-72
2021/05/24 09:27:24;;;;;;;5.97;2.05;;;;;;;32.85;17.58;100218.97;4993106;28;20077;-72
2021/05/24 09:29:53;;;;;;;4.53;1.83;;;;;;;32.89;17.80;100232.41;4993366;28;20357;-73
2021/05/24 09:32:20;;;;;;;5.68;1.77;;;;;;;32.49;18.38;100225.59;4994659;28;20022;-73
2021/05/24 09:34:49;;;;;;;6.75;1.83;;;;;;;32.84;17.69;100223.19;4992844;28;20484;-73
2021/05/24 09:37:16;;;;;;;9.45;1.80;;;;;;;32.74;17.68;100218.94;4992862;28;20027;-74
2021/05/24 09:39:46;;;;;;;4.82;1.58;;;;;;;33.24;16.95;100232.78;4994201;28;20023;-74
2021/05/24 09:42:14;;;;;;;8.57;2.03;;;;;;;34.62;15.87;100234.69;4992996;28;20034;-74
2021/05/24 09:44:53;;;;;;;3.88;1.60;;;;;;;35.53;15.35;100233.81;4992887;28;20029;-72
2021/05/24 09:47:38;;;;;;;5.63;2.55;;;;;;;36.09;14.29;100232.59;4992820;28;20029;-73
2021/05/24 09:50:08;;;;;;;3.05;1.83;;;;;;;36.39;13.88;100224.69;4992389;28;20115;-73
2021/05/24 09:52:38;;;;;;;4.35;1.83;;;;;;;36.03;14.08;100223.19;4992904;28;20169;-74
2021/05/24 09:55:25;;;;;;;3.38;2.22;;;;;;;36.52;14.02;100217.47;4994056;28;20054;-73
2021/05/24 09:58:00;;;;;;;4.60;2.60;;;;;;;36.74;15.88;100223.00;4992358;28;20097;-73
2021/05/24 10:00:30;;;;;;;4.85;2.50;;;;;;;36.18;15.37;100220.69;4992631;28;20092;-73
2021/05/24 10:03:03;;;;;;;3.85;2.55;;;;;;;35.69;16.19;100218.44;4993929;28;20430;-74
2021/05/24 10:05:45;;;;;;;;;;;;;;;35.24;15.87;100223.69;4993930;28;20077;-73
2021/05/24 10:08:11;;;;;;;4.45;2.25;;;;;;;35.74;15.69;100222.59;4992577;28;20268;-73
2021/05/24 10:10:37;;;;;;;5.35;2.15;;;;;;;35.06;14.88;100218.56;4992542;28;20027;-73
2021/05/24 10:13:03;;;;;;;4.85;1.52;;;;;;;35.49;14.96;100215.97;4993463;28;20026;-74
2021/05/24 10:15:29;;;;;;;4.25;1.70;;;;;;;35.36;14.11;100213.63;5005397;28;20096;-73
2021/05/24 10:18:01;;;;;;;2.42;1.50;;;;;;;35.86;14.30;100205.94;5011802;28;20018;-73
2021/05/24 10:20:31;;;;;;;;;;;;;;;35.52;14.92;100202.50;5012592;28;20030;-73
2021/05/24 10:22:58;;;;;;;1.80;1.40;;;;;;;35.03;14.83;100205.94;5011800;28;19909;-73
2021/05/24 10:25:24;;;;;;;2.53;1.90;;;;;;;35.62;14.69;100200.88;5012219;28;20026;-73
2021/05/24 10:27:51;;;;;;;4.40;1.63;;;;;;;35.87;14.07;100199.59;4995446;28;20104;-73
2021/05/24 10:30:18;;;;;;;4.78;1.77;;;;;;;35.51;14.17;100203.84;5012263;28;20447;-74
2021/05/24 10:32:54;;;;;;;3.53;1.58;;;;;;;35.58;14.89;100177.22;5011884;28;20088;-73
2021/05/24 10:35:37;;;;;;;8.68;2.45;;;;;;;36.83;14.06;100195.75;5012801;28;20405;-73
2021/05/24 10:38:26;;;;;;;2.70;1.52;;;;;;;36.79;13.81;100201.84;5012744;28;20030;-72
2021/05/24 10:41:01;;;;;;;6.80;2.20;;;;;;;36.37;14.90;100194.66;5013385;28;20017;-73
2021/05/24 10:43:45;;;;;;;5.10;1.70;;;;;;;35.80;15.32;100190.75;5012035;28;20029;-74
2021/05/24 10:46:25;;;;;;;2.50;1.48;;;;;;;36.02;15.27;100195.56;5011595;28;20029;-73
2021/05/24 10:49:11;;;;;;;2.28;1.20;;;;;;;35.68;15.92;100193.69;5011672;28;20026;-72
2021/05/24 10:51:45;;;;;;;7.82;2.72;;;;;;;35.56;15.71;100189.34;5012853;28;20026;-72
2021/05/24 10:54:35;;;;;;;5.20;1.50;;;;;;;35.27;15.35;100187.94;5011357;28;20113;-73
2021/05/24 10:57:01;;;;;;;5.65;2.15;;;;;;;35.49;14.90;100194.94;5012544;28;20042;-73
2021/05/24 10:59:48;;;;;;;4.13;1.83;;;;;;;35.74;15.28;100202.34;5011506;28;20088;-73
2021/05/24 11:02:31;;;;;;;6.07;1.60;;;;;;;35.98;15.55;100186.38;5010644;28;20124;-72
2021/05/24 11:04:58;;;;;;;7.63;1.73;;;;;;;35.99;15.41;100185.06;5011575;28;20381;-72
2021/05/24 11:07:25;;;;;;;8.02;1.92;;;;;;;35.47;15.57;100175.19;5011253;28;20034;-73
2021/05/24 11:09:50;;;;;;;3.58;1.50;;;;;;;35.95;15.63;100186.13;5011418;28;20121;-73
2021/05/24 11:12:30;;;;;;;3.90;1.63;;;;;;;35.40;16.03;100179.41;5012291;28;20018;-72
2021/05/24 11:15:06;;;;;;;8.48;2.17;;;;;;;35.37;16.13;100185.50;5011323;28;20089;-73
2021/05/24 11:18:00;;;;;;;4.57;1.85;;;;;;;35.19;16.85;100178.25;5011391;28;20029;-73
2021/05/24 11:20:34;;;;;;;4.40;1.30;;;;;;;34.52;17.39;100175.66;5015755;28;20026;-73
2021/05/24 11:26:00;;;;;;;8.15;2.00;;;;;;;34.76;17.90;100172.94;5016336;28;20036;-72
2021/05/24 11:28:38;;;;;;;7.65;2.28;;;;;;;34.44;17.94;100174.59;5014741;28;20056;-74
2021/05/24 11:31:14;;;;;;;4.57;1.85;;;;;;;35.31;17.00;100182.63;5015063;28;20472;-72